createdAt,value
2023-03-22T00:00:00.231Z,99452.47
2023-03-22T00:02:27.265Z,99448.59
2023-03-22T00:04:54.078Z,99445.94
2023-03-22T00:07:21.128Z,99445.09
2023-03-22T00:09:47.839Z,99451.56
2023-03-22T00:12:14.605Z,99452.41
2023-03-22T00:14:41.646Z,99452.22
2023-03-22T00:17:08.352Z,99457.91
2023-03-22T00:19:35.126Z,99450.38
2023-03-22T00:22:03.731Z,99441.00
2023-03-22T00:24:30.671Z,99443.38
2023-03-22T00:26:58.871Z,99447.81
2023-03-22T00:29:25.692Z,99446.63
2023-03-22T00:31:54.515Z,99443.75
2023-03-22T00:34:21.268Z,99448.72
2023-03-22T00:36:48.634Z,99450.66
2023-03-22T00:39:15.901Z,99443.75
2023-03-22T00:41:42.600Z,99445.41
2023-03-22T00:44:09.326Z,99445.66
2023-03-22T00:46:37.601Z,99438.66
2023-03-22T00:51:31.189Z,99434.00
2023-03-22T00:53:57.914Z,99424.41
2023-03-22T00:56:25.778Z,99422.66
2023-03-22T00:58:52.530Z,99420.72
2023-03-22T01:01:19.252Z,99417.31
2023-03-22T01:03:50.003Z,99420.44
2023-03-22T01:06:16.934Z,99424.78
2023-03-22T01:08:43.656Z,99408.56
2023-03-22T01:11:10.426Z,99407.91
2023-03-22T01:13:38.025Z,99410.22
2023-03-22T01:16:06.788Z,99408.72
2023-03-22T01:18:34.344Z,99409.19
2023-03-22T01:21:01.309Z,99406.63
2023-03-22T01:23:28.430Z,99401.81
2023-03-22T01:25:55.210Z,99406.97
2023-03-22T01:28:22.108Z,99394.44
2023-03-22T01:30:49.192Z,99390.03
2023-03-22T01:33:16.267Z,99388.25
2023-03-22T01:35:43.285Z,99385.09
2023-03-22T01:38:10.157Z,99379.03
2023-03-22T01:40:37.046Z,99373.31
2023-03-22T01:43:04.118Z,99373.31
2023-03-22T01:45:36.065Z,99374.50
2023-03-22T01:48:06.599Z,99372.66
2023-03-22T01:50:33.707Z,99367.69
2023-03-22T01:55:33.520Z,99367.97
2023-03-22T01:58:02.109Z,99369.16
2023-03-22T02:00:29.319Z,99362.97
2023-03-22T02:02:56.309Z,99358.91
2023-03-22T02:05:23.252Z,99360.00
2023-03-22T02:07:51.035Z,99358.09
2023-03-22T02:10:22.500Z,99351.31
2023-03-22T02:13:07.251Z,99353.50
2023-03-22T02:15:43.653Z,99356.56
2023-03-22T02:18:47.764Z,99357.19
2023-03-22T02:21:26.953Z,99356.28
2023-03-22T02:24:06.893Z,99362.16
2023-03-22T02:26:41.713Z,99360.00
2023-03-22T02:29:16.065Z,99345.88
2023-03-22T02:31:56.346Z,99346.50
2023-03-22T02:34:36.059Z,99331.53
2023-03-22T02:37:05.601Z,99341.66
2023-03-22T02:39:45.282Z,99329.25
2023-03-22T02:42:29.747Z,99345.47
2023-03-22T02:47:40.623Z,99333.88
2023-03-22T02:50:10.565Z,99333.50
2023-03-22T02:52:46.789Z,99329.69
2023-03-22T02:55:36.154Z,99329.00
2023-03-22T02:58:06.650Z,99327.59
2023-03-22T03:00:34.982Z,99329.25
2023-03-22T03:03:11.509Z,99330.53
2023-03-22T03:05:45.049Z,99333.47
2023-03-22T03:08:13.705Z,99333.38
2023-03-22T03:10:42.166Z,99333.78
2023-03-22T03:13:13.891Z,99330.84
2023-03-22T03:15:45.507Z,99332.00
2023-03-22T03:18:15.362Z,99331.44
2023-03-22T03:20:54.800Z,99333.09
2023-03-22T03:23:32.276Z,99332.25
2023-03-22T03:26:05.731Z,99331.19
2023-03-22T03:28:39.227Z,99336.44
2023-03-22T03:31:14.156Z,99335.84
2023-03-22T03:34:06.707Z,99334.47
2023-03-22T03:36:38.060Z,99337.03
2023-03-22T03:39:06.672Z,99343.22
2023-03-22T03:41:34.198Z,99340.34
2023-03-22T03:44:01.796Z,99333.34
2023-03-22T03:46:29.490Z,99339.56
2023-03-22T03:48:58.643Z,99341.16
2023-03-22T03:51:28.119Z,99341.03
2023-03-22T03:53:54.773Z,99354.09
2023-03-22T03:56:21.603Z,99344.94
2023-03-22T03:58:48.361Z,99351.31
2023-03-22T04:01:15.059Z,99346.97
2023-03-22T04:03:41.746Z,99343.41
2023-03-22T04:06:09.215Z,99347.09
2023-03-22T04:08:36.296Z,99347.75
2023-03-22T04:11:02.976Z,99341.22
2023-03-22T04:13:30.046Z,99343.59
2023-03-22T04:15:58.260Z,99335.09
2023-03-22T04:18:25.092Z,99339.56
2023-03-22T04:20:53.744Z,99332.69
2023-03-22T04:23:22.879Z,99336.00
2023-03-22T04:25:50.710Z,99341.16
2023-03-22T04:28:19.995Z,99334.94
2023-03-22T04:30:52.033Z,99334.03
2023-03-22T04:33:20.254Z,99334.41
2023-03-22T04:35:47.030Z,99325.78
2023-03-22T04:38:14.252Z,99322.44
2023-03-22T04:40:47.066Z,99319.59
2023-03-22T04:43:15.814Z,99318.78
2023-03-22T04:45:44.086Z,99314.25
2023-03-22T04:48:11.443Z,99309.69
2023-03-22T04:50:40.613Z,99300.63
2023-03-22T04:53:08.311Z,99302.91
2023-03-22T04:55:35.133Z,99295.91
2023-03-22T04:58:01.956Z,99290.28
2023-03-22T05:00:30.612Z,99286.56
2023-03-22T05:02:58.914Z,99266.34
2023-03-22T05:05:25.880Z,99277.75
2023-03-22T05:07:52.817Z,99277.31
2023-03-22T05:10:19.699Z,99265.97
2023-03-22T05:12:46.420Z,99271.13
2023-03-22T05:15:14.027Z,99267.81
2023-03-22T05:17:40.819Z,99261.22
2023-03-22T05:20:10.266Z,99263.66
2023-03-22T05:22:41.289Z,99276.56
2023-03-22T05:25:10.787Z,99282.16
2023-03-22T05:27:39.222Z,99284.09
2023-03-22T05:32:31.103Z,99286.88
2023-03-22T05:34:57.899Z,99281.25
2023-03-22T05:37:25.558Z,99278.47
2023-03-22T05:39:52.382Z,99286.56
2023-03-22T05:42:19.108Z,99290.03
2023-03-22T05:44:45.860Z,99287.19
2023-03-22T05:47:12.640Z,99295.78
2023-03-22T05:49:39.392Z,99300.56
2023-03-22T05:52:06.270Z,99309.50
2023-03-22T05:54:33.102Z,99297.56
2023-03-22T05:56:59.821Z,99306.72
2023-03-22T05:59:26.777Z,99306.84
2023-03-22T06:01:53.585Z,99310.59
2023-03-22T06:04:21.372Z,99305.06
2023-03-22T06:06:48.116Z,99307.34
2023-03-22T06:09:17.626Z,99307.78
2023-03-22T06:11:44.805Z,99310.28
2023-03-22T06:14:11.840Z,99307.84
2023-03-22T06:16:38.580Z,99308.53
2023-03-22T06:21:31.298Z,99301.34
2023-03-22T06:23:57.919Z,99310.25
2023-03-22T06:26:24.604Z,99306.09
2023-03-22T06:28:51.638Z,99311.28
2023-03-22T06:31:18.442Z,99302.28
2023-03-22T06:33:45.709Z,99309.88
2023-03-22T06:36:12.425Z,99308.88
2023-03-22T06:38:39.109Z,99300.63
2023-03-22T06:41:05.841Z,99306.03
2023-03-22T06:43:32.556Z,99308.94
2023-03-22T06:45:59.391Z,99311.44
2023-03-22T06:48:26.223Z,99325.28
2023-03-22T06:50:52.947Z,99313.91
2023-03-22T06:53:19.612Z,99316.78
2023-03-22T06:55:46.762Z,99314.53
2023-03-22T06:58:13.606Z,99312.22
2023-03-22T07:00:40.480Z,99316.19
2023-03-22T07:03:07.495Z,99317.84
2023-03-22T07:05:34.161Z,99313.25
2023-03-22T07:08:00.936Z,99316.31
2023-03-22T07:10:27.708Z,99313.81
2023-03-22T07:12:54.934Z,99324.69
2023-03-22T07:15:24.852Z,99319.63
2023-03-22T07:17:52.910Z,99312.78
2023-03-22T07:20:20.105Z,99311.41
2023-03-22T07:22:46.799Z,99315.75
2023-03-22T07:25:13.948Z,99309.19
2023-03-22T07:27:41.024Z,99311.72
2023-03-22T07:30:09.801Z,99300.47
2023-03-22T07:32:36.667Z,99297.47
2023-03-22T07:35:03.702Z,99293.53
2023-03-22T07:37:30.602Z,99290.94
2023-03-22T07:39:57.277Z,99297.72
2023-03-22T07:42:24.001Z,99302.44
2023-03-22T07:44:50.807Z,99301.16
2023-03-22T07:47:27.110Z,99302.41
2023-03-22T07:50:00.862Z,99302.09
2023-03-22T07:52:27.556Z,99300.47
2023-03-22T07:54:54.204Z,99299.78
2023-03-22T07:57:20.914Z,99301.03
2023-03-22T07:59:47.568Z,99302.81
2023-03-22T08:02:14.603Z,99302.53
2023-03-22T08:04:41.377Z,99295.78
2023-03-22T08:07:10.384Z,99294.97
2023-03-22T08:09:37.922Z,99292.47
2023-03-22T08:14:36.591Z,99291.38
2023-03-22T08:17:05.826Z,99301.50
2023-03-22T08:19:34.344Z,99307.34
2023-03-22T08:22:01.514Z,99304.06
2023-03-22T08:24:28.168Z,99293.00
2023-03-22T08:26:54.951Z,99295.47
2023-03-22T08:29:23.405Z,99306.28
2023-03-22T08:31:51.291Z,99298.66
2023-03-22T08:34:18.069Z,99298.97
2023-03-22T08:36:44.895Z,99303.47
2023-03-22T08:39:11.651Z,99286.69
2023-03-22T08:41:39.897Z,99299.41
2023-03-22T08:44:07.105Z,99298.59
2023-03-22T08:46:33.870Z,99304.81
2023-03-22T08:49:02.410Z,99302.81
2023-03-22T08:51:29.174Z,99297.41
2023-03-22T08:53:58.941Z,99288.84
2023-03-22T08:56:27.495Z,99292.41
2023-03-22T08:58:54.192Z,99297.56
2023-03-22T09:01:21.866Z,99284.25
2023-03-22T09:03:48.732Z,99295.31
2023-03-22T09:06:15.663Z,99284.09
2023-03-22T09:08:42.511Z,99287.25
2023-03-22T09:11:09.911Z,99279.19
2023-03-22T09:13:36.646Z,99281.25
2023-03-22T09:16:04.372Z,99280.97
2023-03-22T09:18:31.235Z,99278.78
2023-03-22T09:20:58.460Z,99299.16
2023-03-22T09:23:25.184Z,99269.63
2023-03-22T09:25:51.988Z,99274.59
2023-03-22T09:28:19.357Z,99276.97
2023-03-22T09:30:46.273Z,99274.44
2023-03-22T09:33:13.368Z,99271.50
2023-03-22T09:35:42.889Z,99266.44
2023-03-22T09:38:10.391Z,99264.19
2023-03-22T09:40:43.880Z,99262.88
2023-03-22T09:43:13.383Z,99258.00
2023-03-22T09:45:43.921Z,99266.41
2023-03-22T09:48:27.703Z,99261.63
2023-03-22T09:50:55.738Z,99256.25
2023-03-22T09:53:26.963Z,99257.56
2023-03-22T09:56:06.810Z,99246.97
2023-03-22T09:58:40.949Z,99250.41
2023-03-22T10:01:29.272Z,99248.53
2023-03-22T10:03:59.259Z,99249.13
2023-03-22T10:06:31.148Z,99247.84
2023-03-22T10:09:06.831Z,99243.50
2023-03-22T10:11:46.775Z,99248.50
2023-03-22T10:14:26.263Z,99229.66
2023-03-22T10:16:56.605Z,99236.38
2023-03-22T10:19:29.785Z,99227.88
2023-03-22T10:22:01.791Z,99229.53
2023-03-22T10:24:35.803Z,99233.97
2023-03-22T10:27:02.866Z,99227.06
2023-03-22T10:29:41.684Z,99235.19
2023-03-22T10:32:20.102Z,99239.41
2023-03-22T10:34:47.491Z,99231.16
2023-03-22T10:37:23.493Z,99239.22
2023-03-22T10:39:54.178Z,99228.16
2023-03-22T10:42:23.757Z,99230.94
2023-03-22T10:45:00.795Z,99220.22
2023-03-22T10:47:43.128Z,99235.53
2023-03-22T10:50:28.999Z,99230.53
2023-03-22T10:55:31.300Z,99217.66
2023-03-22T10:58:06.814Z,99218.34
2023-03-22T11:00:33.474Z,99215.59
2023-03-22T11:03:01.926Z,99216.88
2023-03-22T11:05:30.397Z,99215.09
2023-03-22T11:07:58.857Z,99197.88
2023-03-22T11:10:33.703Z,99205.28
2023-03-22T11:13:05.999Z,99202.25
2023-03-22T11:15:35.415Z,99198.16
2023-03-22T11:18:06.829Z,99205.91
2023-03-22T11:20:35.039Z,99206.34
2023-03-22T11:25:35.575Z,99212.59
2023-03-22T11:30:34.128Z,99189.22
2023-03-22T11:33:06.889Z,99191.06
2023-03-22T11:35:36.930Z,99180.16
2023-03-22T11:40:36.842Z,99182.78
2023-03-22T11:43:06.896Z,99180.00
2023-03-22T11:45:38.097Z,99171.72
2023-03-22T11:48:07.015Z,99172.63
2023-03-22T11:50:38.220Z,99161.16
2023-03-22T11:53:06.938Z,99155.66
2023-03-22T11:55:36.770Z,99154.06
2023-03-22T12:00:37.396Z,99152.22
2023-03-22T12:03:06.127Z,99158.44
2023-03-22T12:05:37.320Z,99149.56
2023-03-22T12:08:06.982Z,99143.19
2023-03-22T12:10:40.534Z,99161.66
2023-03-22T12:13:21.346Z,99142.06
2023-03-22T12:15:56.718Z,99145.66
2023-03-22T12:18:34.562Z,99147.53
2023-03-22T12:21:02.090Z,99125.09
2023-03-22T12:23:32.329Z,99137.81
2023-03-22T12:26:07.038Z,99129.41
2023-03-22T12:29:03.889Z,99133.19
2023-03-22T12:31:45.980Z,99119.19
2023-03-22T12:34:18.966Z,99126.44
2023-03-22T12:36:51.248Z,99124.53
2023-03-22T12:39:32.670Z,99130.50
2023-03-22T12:42:07.026Z,99113.06
2023-03-22T12:44:39.428Z,99105.44
2023-03-22T12:47:07.199Z,99108.28
2023-03-22T12:49:40.733Z,99105.09
2023-03-22T12:52:37.640Z,99115.91
2023-03-22T12:55:21.758Z,99106.31
2023-03-22T12:57:52.643Z,99108.75
2023-03-22T13:00:34.123Z,99098.31
2023-03-22T13:03:10.381Z,99106.47
2023-03-22T13:05:37.855Z,99098.41
2023-03-22T13:10:31.467Z,99081.28
2023-03-22T13:13:07.097Z,99085.94
2023-03-22T13:15:42.158Z,99086.44
2023-03-22T13:18:45.449Z,99085.16
2023-03-22T13:21:34.943Z,99089.75
2023-03-22T13:24:07.702Z,99084.88
2023-03-22T13:26:39.812Z,99087.59
2023-03-22T13:29:22.395Z,99093.25
2023-03-22T13:31:52.067Z,99085.81
2023-03-22T13:34:21.757Z,99075.06
2023-03-22T13:36:58.372Z,99073.19
2023-03-22T13:39:27.536Z,99069.41
2023-03-22T13:42:07.186Z,99059.25
2023-03-22T13:44:40.279Z,99051.72
2023-03-22T13:47:30.792Z,99053.00
2023-03-22T13:50:07.451Z,99051.53
2023-03-22T13:52:38.817Z,99052.91
2023-03-22T13:55:06.025Z,99045.94
2023-03-22T13:57:58.482Z,99035.03
2023-03-22T14:00:33.947Z,99053.63
2023-03-22T14:03:07.594Z,99052.88
2023-03-22T14:05:37.780Z,99045.25
2023-03-22T14:10:31.803Z,99028.41
2023-03-22T14:15:45.199Z,99028.13
2023-03-22T14:18:26.988Z,99031.41
2023-03-22T14:20:58.370Z,99031.19
2023-03-22T14:53:39.030Z,99000.00
2023-03-22T14:56:06.141Z,99002.50
2023-03-22T14:58:36.128Z,98990.88
2023-03-22T15:01:08.463Z,98987.00
2023-03-22T15:03:35.363Z,98990.56
2023-03-22T15:06:03.295Z,98978.78
2023-03-22T15:08:33.012Z,98982.09
2023-03-22T15:11:03.348Z,98978.63
2023-03-22T15:13:31.439Z,98979.16
2023-03-22T15:15:58.801Z,98965.81
2023-03-22T15:18:31.148Z,98974.81
2023-03-22T15:21:00.311Z,98957.59
2023-03-22T15:23:32.097Z,98958.34
2023-03-22T15:26:01.082Z,98961.84
2023-03-22T15:28:31.410Z,98960.84
2023-03-22T15:31:04.149Z,98964.41
2023-03-22T15:33:42.269Z,98957.53
2023-03-22T15:36:17.978Z,98952.53
2023-03-22T15:38:46.978Z,98949.06
2023-03-22T15:41:44.885Z,98950.31
2023-03-22T15:44:27.776Z,98947.31
2023-03-22T15:47:07.132Z,98958.09
2023-03-22T15:49:36.263Z,98939.44
2023-03-22T15:52:06.155Z,98953.66
2023-03-22T15:54:34.356Z,98954.03
2023-03-22T15:57:06.183Z,98953.38
2023-03-22T15:59:32.982Z,98954.66
2023-03-22T16:02:01.997Z,98952.31
2023-03-22T16:04:34.667Z,98952.38
2023-03-22T16:07:02.133Z,98951.41
2023-03-22T16:09:29.027Z,98958.38
2023-03-22T16:11:55.788Z,98949.47
2023-03-22T16:14:22.676Z,98946.03
2023-03-22T16:16:49.642Z,98940.50
2023-03-22T16:19:16.476Z,98944.63
2023-03-22T16:21:43.418Z,98943.97
2023-03-22T16:24:12.313Z,98953.59
2023-03-22T16:26:40.265Z,98950.03
2023-03-22T16:29:07.843Z,98952.91
2023-03-22T16:31:34.794Z,98958.97
2023-03-22T16:34:02.343Z,98952.16
2023-03-22T16:36:29.415Z,98955.44
2023-03-22T16:38:56.371Z,98974.25
2023-03-22T16:41:25.464Z,98966.66
2023-03-22T16:43:54.002Z,98971.28
2023-03-22T16:46:21.176Z,98959.56
2023-03-22T16:48:48.148Z,98975.31
2023-03-22T16:51:30.913Z,98976.94
2023-03-22T16:53:59.094Z,98978.00
2023-03-22T16:56:30.772Z,98972.22
2023-03-22T16:58:57.908Z,98971.38
2023-03-22T17:01:26.144Z,98975.13
2023-03-22T17:03:53.204Z,98983.00
2023-03-22T17:06:26.600Z,98985.41
2023-03-22T17:08:53.411Z,98978.59
2023-03-22T17:11:26.168Z,98979.91
2023-03-22T17:13:55.066Z,98982.63
2023-03-22T17:16:22.004Z,98990.75
2023-03-22T17:18:49.636Z,98990.16
2023-03-22T17:21:21.800Z,98984.72
2023-03-22T17:23:49.833Z,98977.13
2023-03-22T17:26:20.382Z,98987.91
2023-03-22T17:28:47.192Z,98991.19
2023-03-22T17:31:16.153Z,98993.88
2023-03-22T17:33:43.101Z,98995.75
2023-03-22T17:36:13.304Z,98991.28
2023-03-22T17:38:45.986Z,99002.41
2023-03-22T17:41:27.807Z,98999.34
2023-03-22T17:43:54.697Z,98984.75
2023-03-22T17:48:51.378Z,98992.22
2023-03-22T17:51:18.200Z,98993.09
2023-03-22T17:54:33.859Z,98990.81
2023-03-22T17:57:03.446Z,98994.53
2023-03-22T17:59:18.358Z,98998.91
2023-03-22T18:01:45.428Z,98996.44
2023-03-22T18:04:12.403Z,99002.09
2023-03-22T18:06:39.397Z,98999.66
2023-03-22T18:11:31.647Z,99003.75
2023-03-22T18:14:13.749Z,99004.25
2023-03-22T18:16:52.976Z,99006.41
2023-03-22T18:19:18.343Z,99013.78
2023-03-22T18:21:53.429Z,99013.81
2023-03-22T18:24:20.628Z,99027.31
2023-03-22T18:27:03.606Z,99024.63
2023-03-22T18:29:31.696Z,99024.91
2023-03-22T18:32:08.896Z,99024.53
2023-03-22T18:34:33.986Z,99021.63
2023-03-22T18:37:01.331Z,99034.63
2023-03-22T18:42:16.501Z,99029.97
2023-03-22T18:44:32.017Z,99031.84
2023-03-22T18:46:59.107Z,99026.88
2023-03-22T18:49:26.076Z,99026.94
2023-03-22T18:52:36.108Z,99026.69
2023-03-22T18:54:32.859Z,99026.94
2023-03-22T18:57:00.878Z,99024.69
2023-03-22T18:59:30.987Z,99023.31
2023-03-22T19:02:09.826Z,99032.38
2023-03-22T19:04:31.706Z,99025.22
2023-03-22T19:07:01.126Z,99025.66
2023-03-22T19:09:29.829Z,99026.75
2023-03-22T19:11:58.312Z,99026.69
2023-03-22T19:15:17.574Z,99023.91
2023-03-22T19:17:12.519Z,99018.16
2023-03-22T19:19:39.422Z,99031.47
2023-03-22T19:22:07.279Z,99023.59
2023-03-22T19:24:34.603Z,99025.13
2023-03-22T19:27:11.446Z,99015.72
2023-03-22T19:29:31.700Z,99019.09
2023-03-22T19:31:59.946Z,99018.91
2023-03-22T19:34:29.438Z,99010.38
2023-03-22T19:36:58.166Z,99019.59
2023-03-22T19:39:26.388Z,99011.56
2023-03-22T19:42:04.121Z,99025.19
2023-03-22T19:44:31.660Z,99017.53
2023-03-22T19:49:26.112Z,99009.91
2023-03-22T19:51:55.300Z,99016.22
2023-03-22T19:54:33.190Z,99013.50
2023-03-22T19:57:10.189Z,99006.06
2023-03-22T20:04:33.369Z,99008.06
2023-03-22T20:07:02.450Z,99003.97
2023-03-22T20:09:29.635Z,99003.66
2023-03-22T20:11:56.558Z,98998.47
2023-03-22T20:14:23.715Z,98997.84
2023-03-22T20:16:56.524Z,98996.75
2023-03-22T20:19:32.964Z,99001.69
2023-03-22T20:21:59.927Z,98998.78
2023-03-22T20:24:27.052Z,98996.72
2023-03-22T20:26:54.054Z,98993.19
2023-03-22T20:29:22.261Z,98989.34
2023-03-22T20:31:52.211Z,98994.72
2023-03-22T20:34:21.221Z,98992.91
2023-03-22T20:36:48.221Z,98986.19
2023-03-22T20:39:15.140Z,98987.16
2023-03-22T20:41:42.121Z,98988.97
2023-03-22T20:44:10.046Z,98988.63
2023-03-22T20:46:36.948Z,98987.56
2023-03-22T20:49:04.138Z,98991.75
2023-03-22T20:51:33.165Z,98985.84
2023-03-22T20:54:00.246Z,98989.19
2023-03-22T20:56:27.658Z,98981.84
2023-03-22T20:58:55.224Z,98978.22
2023-03-22T21:01:22.089Z,98973.06
2023-03-22T21:03:49.179Z,98970.75
2023-03-22T21:06:16.756Z,98970.84
2023-03-22T21:08:43.572Z,98970.13
2023-03-22T21:11:12.675Z,98965.03
2023-03-22T21:13:40.545Z,98962.09
2023-03-22T21:16:17.158Z,98971.03
2023-03-22T21:18:44.745Z,98972.91
2023-03-22T21:21:12.195Z,98979.63
2023-03-22T21:23:39.794Z,98980.59
2023-03-22T21:26:07.528Z,98984.38
2023-03-22T21:28:34.866Z,98979.44
2023-03-22T21:33:31.751Z,98992.31
2023-03-22T21:36:00.194Z,98987.38
2023-03-22T21:38:27.581Z,98991.72
2023-03-22T21:40:58.500Z,98987.38
2023-03-22T21:43:26.433Z,98992.47
2023-03-22T21:45:57.885Z,98986.47
2023-03-22T21:48:26.760Z,98989.47
2023-03-22T21:50:54.668Z,98990.56
2023-03-22T21:53:23.719Z,98986.97
2023-03-22T21:55:53.661Z,98983.34
2023-03-22T21:58:24.563Z,98984.50
2023-03-22T22:00:53.454Z,98982.50
2023-03-22T22:03:20.880Z,98981.94
2023-03-22T22:05:52.633Z,98975.47
2023-03-22T22:08:21.893Z,98981.47
2023-03-22T22:11:00.867Z,98974.66
2023-03-22T22:13:29.417Z,98976.44
2023-03-22T22:15:58.231Z,98977.75
2023-03-22T22:18:25.738Z,98975.50
2023-03-22T22:21:03.023Z,98968.56
2023-03-22T22:23:32.490Z,98961.19
2023-03-22T22:26:00.839Z,98961.41
2023-03-22T22:28:28.311Z,98959.28
2023-03-22T22:30:55.256Z,98963.63
2023-03-22T22:33:22.634Z,98968.75
2023-03-22T22:35:50.116Z,98973.31
2023-03-22T22:38:17.285Z,98980.84
2023-03-22T22:40:45.659Z,98983.47
2023-03-22T22:43:13.281Z,98969.94
2023-03-22T22:45:40.412Z,98986.25
2023-03-22T22:48:07.592Z,98983.47
2023-03-22T22:50:34.497Z,98975.13
2023-03-22T22:53:01.338Z,98983.47
2023-03-22T22:55:28.704Z,98977.09
2023-03-22T22:57:55.696Z,98984.75
2023-03-22T23:00:22.739Z,98980.19
2023-03-22T23:02:49.660Z,98971.16
2023-03-22T23:05:16.636Z,98977.22
2023-03-22T23:07:43.392Z,98981.34
2023-03-22T23:10:10.422Z,98974.94
2023-03-22T23:12:37.596Z,98991.66
2023-03-22T23:17:31.719Z,98979.34
2023-03-22T23:20:02.238Z,98975.13
2023-03-22T23:22:33.341Z,98967.31
2023-03-22T23:25:01.159Z,98964.50
2023-03-22T23:27:32.813Z,98963.69
2023-03-22T23:30:01.029Z,98963.25
2023-03-22T23:32:29.165Z,98963.75
2023-03-22T23:34:58.816Z,98968.41
2023-03-22T23:37:30.968Z,98958.34
2023-03-22T23:39:59.369Z,98952.00
2023-03-22T23:42:27.274Z,98940.13
2023-03-22T23:44:54.286Z,98941.84
2023-03-22T23:47:22.247Z,98936.78
2023-03-22T23:49:49.139Z,98941.63
2023-03-22T23:52:16.681Z,98930.06
2023-03-22T23:54:43.574Z,98924.16
2023-03-22T23:57:10.361Z,98925.97
2023-03-22T23:59:37.731Z,98920.94
